sensor_id;sensor_type;location;lat;lon;timestamp;temperature;humidity
71754;DHT22;59593;51.716;7.016;2022-11-23T00:01:34;8.50;99.90
71754;DHT22;59593;51.716;7.016;2022-11-23T00:04:03;8.50;99.90
71754;DHT22;59593;51.716;7.016;2022-11-23T00:06:29;8.40;99.90
71754;DHT22;59593;51.716;7.016;2022-11-23T00:08:55;8.40;99.90
71754;DHT22;59593;51.716;7.016;2022-11-23T00:11:22;8.40;99.90
71754;DHT22;59593;51.716;7.016;2022-11-23T00:13:47;8.40;99.90
71754;DHT22;59593;51.716;7.016;2022-11-23T00:16:18;8.40;99.90
71754;DHT22;59593;51.716;7.016;2022-11-23T00:18:45;8.40;99.90
71754;DHT22;59593;51.716;7.016;2022-11-23T00:21:16;8.40;99.90
71754;DHT22;59593;51.716;7.016;2022-11-23T00:23:42;8.40;99.90
71754;DHT22;59593;51.716;7.016;2022-11-23T00:26:08;8.40;99.90
71754;DHT22;59593;51.716;7.016;2022-11-23T00:28:35;8.40;99.90
71754;DHT22;59593;51.716;7.016;2022-11-23T00:31:22;8.50;99.90
71754;DHT22;59593;51.716;7.016;2022-11-23T00:33:54;8.50;99.90
71754;DHT22;59593;51.716;7.016;2022-11-23T00:36:20;8.50;99.90
71754;DHT22;59593;51.716;7.016;2022-11-23T00:38:47;8.40;99.90
71754;DHT22;59593;51.716;7.016;2022-11-23T00:41:14;8.50;99.90
71754;DHT22;59593;51.716;7.016;2022-11-23T00:43:41;8.50;99.90
71754;DHT22;59593;51.716;7.016;2022-11-23T00:46:22;8.50;99.90
71754;DHT22;59593;51.716;7.016;2022-11-23T00:48:50;8.50;99.90
71754;DHT22;59593;51.716;7.016;2022-11-23T00:51:23;8.50;99.90
71754;DHT22;59593;51.716;7.016;2022-11-23T00:53:50;8.50;99.90
71754;DHT22;59593;51.716;7.016;2022-11-23T00:56:16;8.50;99.90
71754;DHT22;59593;51.716;7.016;2022-11-23T00:58:49;8.50;99.90
71754;DHT22;59593;51.716;7.016;2022-11-23T01:01:16;8.50;99.90
71754;DHT22;59593;51.716;7.016;2022-11-23T01:03:45;8.50;99.90
71754;DHT22;59593;51.716;7.016;2022-11-23T01:06:24;8.50;99.90
71754;DHT22;59593;51.716;7.016;2022-11-23T01:09:01;8.50;99.90
71754;DHT22;59593;51.716;7.016;2022-11-23T01:11:29;8.60;99.90
71754;DHT22;59593;51.716;7.016;2022-11-23T01:13:55;8.60;99.90
71754;DHT22;59593;51.716;7.016;2022-11-23T01:16:26;8.60;99.90
71754;DHT22;59593;51.716;7.016;2022-11-23T01:18:57;8.60;99.90
71754;DHT22;59593;51.716;7.016;2022-11-23T01:21:24;8.50;99.90
71754;DHT22;59593;51.716;7.016;2022-11-23T01:23:51;8.60;99.90
71754;DHT22;59593;51.716;7.016;2022-11-23T01:26:16;8.50;99.90
71754;DHT22;59593;51.716;7.016;2022-11-23T01:28:42;8.60;99.90
71754;DHT22;59593;51.716;7.016;2022-11-23T01:31:10;8.60;99.90
71754;DHT22;59593;51.716;7.016;2022-11-23T01:33:36;8.60;99.90
71754;DHT22;59593;51.716;7.016;2022-11-23T01:36:13;8.60;99.90
71754;DHT22;59593;51.716;7.016;2022-11-23T01:38:40;8.70;99.90
71754;DHT22;59593;51.716;7.016;2022-11-23T01:41:08;8.70;99.90
71754;DHT22;59593;51.716;7.016;2022-11-23T01:43:33;8.70;99.90
71754;DHT22;59593;51.716;7.016;2022-11-23T01:46:00;8.70;99.90
71754;DHT22;59593;51.716;7.016;2022-11-23T01:51:08;8.70;99.90
71754;DHT22;59593;51.716;7.016;2022-11-23T01:53:36;8.70;99.90
71754;DHT22;59593;51.716;7.016;2022-11-23T01:56:05;8.70;99.90
71754;DHT22;59593;51.716;7.016;2022-11-23T01:58:35;8.70;99.90
71754;DHT22;59593;51.716;7.016;2022-11-23T02:01:02;8.80;99.90
71754;DHT22;59593;51.716;7.016;2022-11-23T02:03:28;8.70;99.90
71754;DHT22;59593;51.716;7.016;2022-11-23T02:06:00;8.70;99.90
71754;DHT22;59593;51.716;7.016;2022-11-23T02:08:27;8.70;99.90
71754;DHT22;59593;51.716;7.016;2022-11-23T02:10:55;8.80;99.90
71754;DHT22;59593;51.716;7.016;2022-11-23T02:13:21;8.70;99.90
71754;DHT22;59593;51.716;7.016;2022-11-23T02:15:49;8.70;99.90
71754;DHT22;59593;51.716;7.016;2022-11-23T02:18:18;8.70;99.90
71754;DHT22;59593;51.716;7.016;2022-11-23T02:20:45;8.80;99.90
71754;DHT22;59593;51.716;7.016;2022-11-23T02:23:23;8.80;99.90
71754;DHT22;59593;51.716;7.016;2022-11-23T02:28:42;8.80;99.90
71754;DHT22;59593;51.716;7.016;2022-11-23T02:31:08;8.90;99.90
71754;DHT22;59593;51.716;7.016;2022-11-23T02:33:39;8.90;99.90
71754;DHT22;59593;51.716;7.016;2022-11-23T02:38:57;8.90;99.90
71754;DHT22;59593;51.716;7.016;2022-11-23T02:41:23;8.80;99.90
71754;DHT22;59593;51.716;7.016;2022-11-23T02:43:53;8.90;99.90
71754;DHT22;59593;51.716;7.016;2022-11-23T02:46:19;8.90;99.90
71754;DHT22;59593;51.716;7.016;2022-11-23T02:48:44;8.90;99.90
71754;DHT22;59593;51.716;7.016;2022-11-23T02:51:10;8.90;99.90
71754;DHT22;59593;51.716;7.016;2022-11-23T02:53:35;8.90;99.90
71754;DHT22;59593;51.716;7.016;2022-11-23T02:56:01;8.90;99.90
71754;DHT22;59593;51.716;7.016;2022-11-23T02:58:26;8.90;99.90
71754;DHT22;59593;51.716;7.016;2022-11-23T03:00:52;8.90;99.90
71754;DHT22;59593;51.716;7.016;2022-11-23T03:03:18;9.00;99.90
71754;DHT22;59593;51.716;7.016;2022-11-23T03:05:43;9.00;99.90
71754;DHT22;59593;51.716;7.016;2022-11-23T03:08:09;9.00;99.90
71754;DHT22;59593;51.716;7.016;2022-11-23T03:10:34;9.00;99.90
71754;DHT22;59593;51.716;7.016;2022-11-23T03:13:00;9.00;99.90
71754;DHT22;59593;51.716;7.016;2022-11-23T03:15:25;9.00;99.90
71754;DHT22;59593;51.716;7.016;2022-11-23T03:17:51;9.00;99.90
71754;DHT22;59593;51.716;7.016;2022-11-23T03:20:17;9.00;99.90
71754;DHT22;59593;51.716;7.016;2022-11-23T03:22:43;9.00;99.90
71754;DHT22;59593;51.716;7.016;2022-11-23T03:25:08;9.00;99.90
71754;DHT22;59593;51.716;7.016;2022-11-23T03:27:36;9.10;99.90
71754;DHT22;59593;51.716;7.016;2022-11-23T03:30:02;9.10;99.90
71754;DHT22;59593;51.716;7.016;2022-11-23T03:32:27;9.10;99.90
71754;DHT22;59593;51.716;7.016;2022-11-23T03:34:53;9.10;99.90
71754;DHT22;59593;51.716;7.016;2022-11-23T03:37:18;9.10;99.90
71754;DHT22;59593;51.716;7.016;2022-11-23T03:39:44;9.10;99.90
71754;DHT22;59593;51.716;7.016;2022-11-23T03:42:10;9.00;99.90
71754;DHT22;59593;51.716;7.016;2022-11-23T03:44:35;9.00;99.90
71754;DHT22;59593;51.716;7.016;2022-11-23T03:47:01;9.10;99.90
71754;DHT22;59593;51.716;7.016;2022-11-23T03:49:26;9.00;99.90
71754;DHT22;59593;51.716;7.016;2022-11-23T03:51:52;9.10;99.90
71754;DHT22;59593;51.716;7.016;2022-11-23T03:54:18;9.10;99.90
71754;DHT22;59593;51.716;7.016;2022-11-23T03:56:43;9.00;99.90
71754;DHT22;59593;51.716;7.016;2022-11-23T03:59:09;9.10;99.90
71754;DHT22;59593;51.716;7.016;2022-11-23T04:01:38;9.00;99.90
71754;DHT22;59593;51.716;7.016;2022-11-23T04:04:03;9.00;99.90
71754;DHT22;59593;51.716;7.016;2022-11-23T04:06:29;9.10;99.90
71754;DHT22;59593;51.716;7.016;2022-11-23T04:08:55;9.10;99.90
71754;DHT22;59593;51.716;7.016;2022-11-23T04:11:21;9.10;99.90
71754;DHT22;59593;51.716;7.016;2022-11-23T04:13:47;9.10;99.90
71754;DHT22;59593;51.716;7.016;2022-11-23T04:16:12;9.10;99.90
71754;DHT22;59593;51.716;7.016;2022-11-23T04:18:38;9.10;99.90
71754;DHT22;59593;51.716;7.016;2022-11-23T04:21:04;9.10;99.90
71754;DHT22;59593;51.716;7.016;2022-11-23T04:23:29;9.10;99.90
71754;DHT22;59593;51.716;7.016;2022-11-23T04:25:55;9.10;99.90
71754;DHT22;59593;51.716;7.016;2022-11-23T04:28:20;9.10;99.90
71754;DHT22;59593;51.716;7.016;2022-11-23T04:30:46;9.00;99.90
71754;DHT22;59593;51.716;7.016;2022-11-23T04:33:11;9.00;99.90
71754;DHT22;59593;51.716;7.016;2022-11-23T04:35:37;9.00;99.90
71754;DHT22;59593;51.716;7.016;2022-11-23T04:38:03;9.00;99.90
71754;DHT22;59593;51.716;7.016;2022-11-23T04:40:28;9.00;99.90
71754;DHT22;59593;51.716;7.016;2022-11-23T04:42:56;8.90;99.90
71754;DHT22;59593;51.716;7.016;2022-11-23T04:45:22;8.90;99.90
71754;DHT22;59593;51.716;7.016;2022-11-23T04:47:48;9.00;99.90
71754;DHT22;59593;51.716;7.016;2022-11-23T04:50:14;8.90;99.90
71754;DHT22;59593;51.716;7.016;2022-11-23T04:52:40;8.90;99.90
71754;DHT22;59593;51.716;7.016;2022-11-23T04:55:06;9.00;99.90
71754;DHT22;59593;51.716;7.016;2022-11-23T04:57:31;8.90;99.90
71754;DHT22;59593;51.716;7.016;2022-11-23T04:59:57;8.90;99.90
71754;DHT22;59593;51.716;7.016;2022-11-23T05:02:23;9.00;99.90
71754;DHT22;59593;51.716;7.016;2022-11-23T05:04:48;8.90;99.90
71754;DHT22;59593;51.716;7.016;2022-11-23T05:07:14;9.00;99.90
71754;DHT22;59593;51.716;7.016;2022-11-23T05:09:39;8.90;99.90
71754;DHT22;59593;51.716;7.016;2022-11-23T05:12:05;8.90;99.90
71754;DHT22;59593;51.716;7.016;2022-11-23T05:14:31;8.90;99.90
71754;DHT22;59593;51.716;7.016;2022-11-23T05:16:56;8.90;99.90
71754;DHT22;59593;51.716;7.016;2022-11-23T05:19:23;8.90;99.90
71754;DHT22;59593;51.716;7.016;2022-11-23T05:21:48;8.90;99.90
71754;DHT22;59593;51.716;7.016;2022-11-23T05:24:14;8.90;99.90
71754;DHT22;59593;51.716;7.016;2022-11-23T05:26:39;8.80;99.90
71754;DHT22;59593;51.716;7.016;2022-11-23T05:29:05;8.80;99.90
71754;DHT22;59593;51.716;7.016;2022-11-23T05:31:31;8.80;99.90
71754;DHT22;59593;51.716;7.016;2022-11-23T05:33:56;8.80;99.90
71754;DHT22;59593;51.716;7.016;2022-11-23T05:36:22;8.70;99.90
71754;DHT22;59593;51.716;7.016;2022-11-23T05:38:47;8.80;99.90
71754;DHT22;59593;51.716;7.016;2022-11-23T05:41:13;8.70;99.90
71754;DHT22;59593;51.716;7.016;2022-11-23T05:43:38;8.70;99.90
71754;DHT22;59593;51.716;7.016;2022-11-23T05:46:04;8.70;99.90
71754;DHT22;59593;51.716;7.016;2022-11-23T05:48:29;8.70;99.90
71754;DHT22;59593;51.716;7.016;2022-11-23T05:50:55;8.80;99.90
71754;DHT22;59593;51.716;7.016;2022-11-23T05:53:21;8.80;99.90
71754;DHT22;59593;51.716;7.016;2022-11-23T05:55:47;8.80;99.90
71754;DHT22;59593;51.716;7.016;2022-11-23T05:58:12;8.80;99.90
71754;DHT22;59593;51.716;7.016;2022-11-23T06:00:38;8.80;99.90
71754;DHT22;59593;51.716;7.016;2022-11-23T06:03:04;8.70;99.90
71754;DHT22;59593;51.716;7.016;2022-11-23T06:05:29;8.80;99.90
71754;DHT22;59593;51.716;7.016;2022-11-23T06:07:55;8.80;99.90
71754;DHT22;59593;51.716;7.016;2022-11-23T06:10:21;8.80;99.90
71754;DHT22;59593;51.716;7.016;2022-11-23T06:12:47;8.80;99.90
71754;DHT22;59593;51.716;7.016;2022-11-23T06:15:14;8.90;99.90
71754;DHT22;59593;51.716;7.016;2022-11-23T06:17:40;8.80;99.90
71754;DHT22;59593;51.716;7.016;2022-11-23T06:20:07;8.80;99.90
71754;DHT22;59593;51.716;7.016;2022-11-23T06:22:33;8.80;99.90
71754;DHT22;59593;51.716;7.016;2022-11-23T06:24:58;8.90;99.90
71754;DHT22;59593;51.716;7.016;2022-11-23T06:27:24;8.80;99.90
71754;DHT22;59593;51.716;7.016;2022-11-23T06:29:49;8.80;99.90
71754;DHT22;59593;51.716;7.016;2022-11-23T06:32:15;8.80;99.90
71754;DHT22;59593;51.716;7.016;2022-11-23T06:34:41;8.80;99.90
71754;DHT22;59593;51.716;7.016;2022-11-23T06:37:07;8.80;99.90
71754;DHT22;59593;51.716;7.016;2022-11-23T06:39:32;8.80;99.90
71754;DHT22;59593;51.716;7.016;2022-11-23T06:41:58;8.80;99.90
71754;DHT22;59593;51.716;7.016;2022-11-23T06:44:23;8.80;99.90
71754;DHT22;59593;51.716;7.016;2022-11-23T06:46:49;8.80;99.90
71754;DHT22;59593;51.716;7.016;2022-11-23T06:49:15;8.70;99.90
71754;DHT22;59593;51.716;7.016;2022-11-23T06:51:44;8.70;99.90
71754;DHT22;59593;51.716;7.016;2022-11-23T06:54:10;8.80;99.90
71754;DHT22;59593;51.716;7.016;2022-11-23T06:56:35;8.70;99.90
71754;DHT22;59593;51.716;7.016;2022-11-23T06:59:01;8.80;99.90
71754;DHT22;59593;51.716;7.016;2022-11-23T07:01:27;8.70;99.90
71754;DHT22;59593;51.716;7.016;2022-11-23T07:03:52;8.80;99.90
71754;DHT22;59593;51.716;7.016;2022-11-23T07:06:18;8.80;99.90
71754;DHT22;59593;51.716;7.016;2022-11-23T07:08:43;8.80;99.90
71754;DHT22;59593;51.716;7.016;2022-11-23T07:11:10;8.80;99.90
71754;DHT22;59593;51.716;7.016;2022-11-23T07:13:37;8.70;99.90
71754;DHT22;59593;51.716;7.016;2022-11-23T07:16:03;8.70;99.90
71754;DHT22;59593;51.716;7.016;2022-11-23T07:18:29;8.70;99.90
71754;DHT22;59593;51.716;7.016;2022-11-23T07:20:58;8.70;99.90
71754;DHT22;59593;51.716;7.016;2022-11-23T07:23:24;8.70;99.90
71754;DHT22;59593;51.716;7.016;2022-11-23T07:25:50;8.80;99.90
71754;DHT22;59593;51.716;7.016;2022-11-23T07:28:16;8.80;99.90
71754;DHT22;59593;51.716;7.016;2022-11-23T07:30:41;8.70;99.90
71754;DHT22;59593;51.716;7.016;2022-11-23T07:33:09;8.70;99.90
71754;DHT22;59593;51.716;7.016;2022-11-23T07:35:35;8.80;99.90
71754;DHT22;59593;51.716;7.016;2022-11-23T07:38:01;8.70;99.90
71754;DHT22;59593;51.716;7.016;2022-11-23T07:40:27;8.80;99.90
71754;DHT22;59593;51.716;7.016;2022-11-23T07:42:58;8.80;99.90
71754;DHT22;59593;51.716;7.016;2022-11-23T07:45:24;8.80;99.90
71754;DHT22;59593;51.716;7.016;2022-11-23T07:48:00;8.80;99.90
71754;DHT22;59593;51.716;7.016;2022-11-23T07:50:26;8.90;99.90
71754;DHT22;59593;51.716;7.016;2022-11-23T07:52:52;8.80;99.90
71754;DHT22;59593;51.716;7.016;2022-11-23T07:55:17;8.80;99.90
71754;DHT22;59593;51.716;7.016;2022-11-23T07:57:43;8.90;99.90
71754;DHT22;59593;51.716;7.016;2022-11-23T08:00:09;8.90;99.90
71754;DHT22;59593;51.716;7.016;2022-11-23T08:02:35;8.90;99.90
71754;DHT22;59593;51.716;7.016;2022-11-23T08:05:01;8.90;99.90
71754;DHT22;59593;51.716;7.016;2022-11-23T08:07:26;8.90;99.90
71754;DHT22;59593;51.716;7.016;2022-11-23T08:09:52;8.90;99.90
71754;DHT22;59593;51.716;7.016;2022-11-23T08:12:17;8.90;99.90
71754;DHT22;59593;51.716;7.016;2022-11-23T08:14:43;8.90;99.90
71754;DHT22;59593;51.716;7.016;2022-11-23T08:17:08;8.90;99.90
71754;DHT22;59593;51.716;7.016;2022-11-23T08:19:34;9.00;99.90
71754;DHT22;59593;51.716;7.016;2022-11-23T08:22:00;9.00;99.90
71754;DHT22;59593;51.716;7.016;2022-11-23T08:24:26;9.10;99.90
71754;DHT22;59593;51.716;7.016;2022-11-23T08:26:51;9.20;99.90
71754;DHT22;59593;51.716;7.016;2022-11-23T08:29:17;9.10;99.90
71754;DHT22;59593;51.716;7.016;2022-11-23T08:31:43;9.10;99.90
71754;DHT22;59593;51.716;7.016;2022-11-23T08:34:08;9.10;99.90
71754;DHT22;59593;51.716;7.016;2022-11-23T08:36:34;9.20;99.90
71754;DHT22;59593;51.716;7.016;2022-11-23T08:38:59;9.30;99.90
71754;DHT22;59593;51.716;7.016;2022-11-23T08:41:25;9.30;99.90
71754;DHT22;59593;51.716;7.016;2022-11-23T08:43:51;9.30;99.90
71754;DHT22;59593;51.716;7.016;2022-11-23T08:46:17;9.40;99.90
71754;DHT22;59593;51.716;7.016;2022-11-23T08:48:43;9.40;99.90
71754;DHT22;59593;51.716;7.016;2022-11-23T08:51:10;9.40;99.90
71754;DHT22;59593;51.716;7.016;2022-11-23T08:53:36;9.30;99.90
71754;DHT22;59593;51.716;7.016;2022-11-23T08:56:03;9.40;99.90
71754;DHT22;59593;51.716;7.016;2022-11-23T08:58:29;9.50;99.90
71754;DHT22;59593;51.716;7.016;2022-11-23T09:00:55;9.50;99.90
71754;DHT22;59593;51.716;7.016;2022-11-23T09:03:21;9.50;99.90
71754;DHT22;59593;51.716;7.016;2022-11-23T09:05:46;9.50;99.90
71754;DHT22;59593;51.716;7.016;2022-11-23T09:08:12;9.60;99.90
71754;DHT22;59593;51.716;7.016;2022-11-23T09:10:37;9.60;99.90
71754;DHT22;59593;51.716;7.016;2022-11-23T09:13:03;9.70;99.90
71754;DHT22;59593;51.716;7.016;2022-11-23T09:15:29;9.70;99.90
71754;DHT22;59593;51.716;7.016;2022-11-23T09:17:56;9.70;99.90
71754;DHT22;59593;51.716;7.016;2022-11-23T09:20:22;9.80;99.90
71754;DHT22;59593;51.716;7.016;2022-11-23T09:22:52;9.90;99.90
71754;DHT22;59593;51.716;7.016;2022-11-23T09:25:18;9.90;99.90
71754;DHT22;59593;51.716;7.016;2022-11-23T09:27:44;9.90;99.90
71754;DHT22;59593;51.716;7.016;2022-11-23T09:30:10;10.00;99.90
71754;DHT22;59593;51.716;7.016;2022-11-23T09:32:36;10.00;99.90
71754;DHT22;59593;51.716;7.016;2022-11-23T09:35:01;10.10;99.90
71754;DHT22;59593;51.716;7.016;2022-11-23T09:37:27;10.10;99.90
71754;DHT22;59593;51.716;7.016;2022-11-23T09:39:53;10.20;99.90
71754;DHT22;59593;51.716;7.016;2022-11-23T09:51:03;10.30;99.90
71754;DHT22;59593;51.716;7.016;2022-11-23T09:53:38;10.30;99.90
71754;DHT22;59593;51.716;7.016;2022-11-23T09:56:17;10.40;99.90
71754;DHT22;59593;51.716;7.016;2022-11-23T09:58:43;10.40;99.90
71754;DHT22;59593;51.716;7.016;2022-11-23T10:01:14;10.50;99.90
71754;DHT22;59593;51.716;7.016;2022-11-23T10:03:41;10.60;99.90
71754;DHT22;59593;51.716;7.016;2022-11-23T10:16:52;10.90;99.90
71754;DHT22;59593;51.716;7.016;2022-11-23T10:24:32;11.10;99.90
71754;DHT22;59593;51.716;7.016;2022-11-23T10:27:00;11.10;99.90
71754;DHT22;59593;51.716;7.016;2022-11-23T10:31:56;11.10;99.90
71754;DHT22;59593;51.716;7.016;2022-11-23T10:34:55;11.10;99.90
71754;DHT22;59593;51.716;7.016;2022-11-23T10:37:22;11.40;99.90
71754;DHT22;59593;51.716;7.016;2022-11-23T10:39:48;11.50;99.90
71754;DHT22;59593;51.716;7.016;2022-11-23T10:42:23;11.90;99.90
71754;DHT22;59593;51.716;7.016;2022-11-23T10:44:50;11.70;99.90
71754;DHT22;59593;51.716;7.016;2022-11-23T10:47:40;11.80;99.90
71754;DHT22;59593;51.716;7.016;2022-11-23T10:50:33;11.80;99.90
71754;DHT22;59593;51.716;7.016;2022-11-23T10:55:54;12.10;99.90
71754;DHT22;59593;51.716;7.016;2022-11-23T10:58:43;12.30;99.90
71754;DHT22;59593;51.716;7.016;2022-11-23T11:01:29;12.50;99.90
71754;DHT22;59593;51.716;7.016;2022-11-23T11:04:00;12.60;99.90
71754;DHT22;59593;51.716;7.016;2022-11-23T11:06:29;12.50;99.90
71754;DHT22;59593;51.716;7.016;2022-11-23T11:08:57;12.60;99.90
71754;DHT22;59593;51.716;7.016;2022-11-23T11:11:33;12.30;99.90
71754;DHT22;59593;51.716;7.016;2022-11-23T11:16:50;12.80;99.90
71754;DHT22;59593;51.716;7.016;2022-11-23T11:19:35;13.50;99.90
71754;DHT22;59593;51.716;7.016;2022-11-23T11:22:04;12.90;99.90
71754;DHT22;59593;51.716;7.016;2022-11-23T11:24:48;13.00;99.90
71754;DHT22;59593;51.716;7.016;2022-11-23T11:27:16;13.10;99.90
71754;DHT22;59593;51.716;7.016;2022-11-23T11:34:57;13.40;99.90
71754;DHT22;59593;51.716;7.016;2022-11-23T11:37:35;13.10;99.90
71754;DHT22;59593;51.716;7.016;2022-11-23T11:45:24;14.00;99.90
71754;DHT22;59593;51.716;7.016;2022-11-23T11:48:02;13.60;99.90
71754;DHT22;59593;51.716;7.016;2022-11-23T11:50:32;13.00;99.90
71754;DHT22;59593;51.716;7.016;2022-11-23T11:53:07;13.30;99.90
71754;DHT22;59593;51.716;7.016;2022-11-23T11:55:54;13.50;99.90
71754;DHT22;59593;51.716;7.016;2022-11-23T11:58:23;14.30;99.90
71754;DHT22;59593;51.716;7.016;2022-11-23T12:00:55;14.40;99.90
71754;DHT22;59593;51.716;7.016;2022-11-23T12:03:49;14.30;99.90
71754;DHT22;59593;51.716;7.016;2022-11-23T12:06:42;14.30;99.90
71754;DHT22;59593;51.716;7.016;2022-11-23T12:09:14;14.50;99.90
71754;DHT22;59593;51.716;7.016;2022-11-23T12:11:41;14.10;99.90
71754;DHT22;59593;51.716;7.016;2022-11-23T12:14:10;13.90;99.90
71754;DHT22;59593;51.716;7.016;2022-11-23T12:17:01;13.90;99.90
71754;DHT22;59593;51.716;7.016;2022-11-23T12:19:38;13.90;99.90
71754;DHT22;59593;51.716;7.016;2022-11-23T12:24:53;13.70;99.90
71754;DHT22;59593;51.716;7.016;2022-11-23T12:27:43;13.90;99.90
71754;DHT22;59593;51.716;7.016;2022-11-23T12:43:58;12.90;99.90
71754;DHT22;59593;51.716;7.016;2022-11-23T12:54:46;11.70;99.90
71754;DHT22;59593;51.716;7.016;2022-11-23T13:13:20;13.30;99.90
71754;DHT22;59593;51.716;7.016;2022-11-23T13:16:16;13.90;99.90
71754;DHT22;59593;51.716;7.016;2022-11-23T13:19:06;14.10;99.90
71754;DHT22;59593;51.716;7.016;2022-11-23T13:21:39;13.80;99.90
71754;DHT22;59593;51.716;7.016;2022-11-23T13:29:54;14.60;99.90
71754;DHT22;59593;51.716;7.016;2022-11-23T13:40:32;15.60;99.90
71754;DHT22;59593;51.716;7.016;2022-11-23T13:45:40;15.80;99.90
71754;DHT22;59593;51.716;7.016;2022-11-23T13:48:13;16.00;99.90
71754;DHT22;59593;51.716;7.016;2022-11-23T13:53:22;14.40;99.90
71754;DHT22;59593;51.716;7.016;2022-11-23T13:55:52;14.20;99.90
71754;DHT22;59593;51.716;7.016;2022-11-23T14:00:55;14.10;99.90
71754;DHT22;59593;51.716;7.016;2022-11-23T14:03:48;13.70;99.90
71754;DHT22;59593;51.716;7.016;2022-11-23T14:06:52;13.20;99.90
71754;DHT22;59593;51.716;7.016;2022-11-23T14:09:40;12.80;99.90
71754;DHT22;59593;51.716;7.016;2022-11-23T14:37:32;10.50;99.90
71754;DHT22;59593;51.716;7.016;2022-11-23T14:40:05;10.50;99.90
71754;DHT22;59593;51.716;7.016;2022-11-23T14:42:41;10.50;99.90
71754;DHT22;59593;51.716;7.016;2022-11-23T14:45:12;10.50;99.90
71754;DHT22;59593;51.716;7.016;2022-11-23T14:47:38;10.50;99.90
71754;DHT22;59593;51.716;7.016;2022-11-23T14:50:04;10.40;99.90
71754;DHT22;59593;51.716;7.016;2022-11-23T14:52:34;10.30;99.90
71754;DHT22;59593;51.716;7.016;2022-11-23T14:55:03;10.30;99.90
71754;DHT22;59593;51.716;7.016;2022-11-23T14:57:41;10.20;99.90
71754;DHT22;59593;51.716;7.016;2022-11-23T15:02:49;10.10;99.90
71754;DHT22;59593;51.716;7.016;2022-11-23T15:05:21;10.20;99.90
71754;DHT22;59593;51.716;7.016;2022-11-23T15:08:03;10.20;99.90
71754;DHT22;59593;51.716;7.016;2022-11-23T15:13:26;10.10;99.90
71754;DHT22;59593;51.716;7.016;2022-11-23T15:15:54;10.10;99.90
71754;DHT22;59593;51.716;7.016;2022-11-23T15:18:31;10.20;99.90
71754;DHT22;59593;51.716;7.016;2022-11-23T15:21:00;10.10;99.90
71754;DHT22;59593;51.716;7.016;2022-11-23T15:23:33;10.20;99.90
71754;DHT22;59593;51.716;7.016;2022-11-23T15:26:03;10.10;99.90
71754;DHT22;59593;51.716;7.016;2022-11-23T15:28:31;10.20;99.90
71754;DHT22;59593;51.716;7.016;2022-11-23T15:30:58;10.20;99.90
71754;DHT22;59593;51.716;7.016;2022-11-23T15:33:24;10.20;99.90
71754;DHT22;59593;51.716;7.016;2022-11-23T15:35:50;10.10;99.90
71754;DHT22;59593;51.716;7.016;2022-11-23T15:38:18;10.20;99.90
71754;DHT22;59593;51.716;7.016;2022-11-23T15:40:47;10.00;99.90
71754;DHT22;59593;51.716;7.016;2022-11-23T15:43:14;10.10;99.90
71754;DHT22;59593;51.716;7.016;2022-11-23T15:51:06;10.10;99.90
71754;DHT22;59593;51.716;7.016;2022-11-23T15:53:53;10.10;99.90
71754;DHT22;59593;51.716;7.016;2022-11-23T15:56:35;10.10;99.90
71754;DHT22;59593;51.716;7.016;2022-11-23T16:01:47;9.90;99.90
71754;DHT22;59593;51.716;7.016;2022-11-23T16:07:24;10.00;99.90
71754;DHT22;59593;51.716;7.016;2022-11-23T16:12:33;10.00;99.90
71754;DHT22;59593;51.716;7.016;2022-11-23T16:15:35;10.00;99.90
71754;DHT22;59593;51.716;7.016;2022-11-23T16:18:23;9.90;99.90
71754;DHT22;59593;51.716;7.016;2022-11-23T16:21:12;9.80;99.90
71754;DHT22;59593;51.716;7.016;2022-11-23T16:23:49;9.80;99.90
71754;DHT22;59593;51.716;7.016;2022-11-23T16:26:16;9.70;99.90
71754;DHT22;59593;51.716;7.016;2022-11-23T16:28:52;9.60;99.90
71754;DHT22;59593;51.716;7.016;2022-11-23T16:31:54;9.60;99.90
71754;DHT22;59593;51.716;7.016;2022-11-23T16:34:21;9.60;99.90
71754;DHT22;59593;51.716;7.016;2022-11-23T16:36:47;9.60;99.90
71754;DHT22;59593;51.716;7.016;2022-11-23T16:39:12;9.60;99.90
71754;DHT22;59593;51.716;7.016;2022-11-23T16:41:39;9.60;99.90
71754;DHT22;59593;51.716;7.016;2022-11-23T16:44:04;9.60;99.90
71754;DHT22;59593;51.716;7.016;2022-11-23T16:46:33;9.60;99.90
71754;DHT22;59593;51.716;7.016;2022-11-23T16:49:00;9.50;99.90
71754;DHT22;59593;51.716;7.016;2022-11-23T16:51:25;9.40;99.90
71754;DHT22;59593;51.716;7.016;2022-11-23T16:53:51;9.40;99.90
71754;DHT22;59593;51.716;7.016;2022-11-23T16:56:24;9.30;99.90
71754;DHT22;59593;51.716;7.016;2022-11-23T16:58:51;9.40;99.90
71754;DHT22;59593;51.716;7.016;2022-11-23T17:01:19;9.30;99.90
71754;DHT22;59593;51.716;7.016;2022-11-23T17:03:46;9.30;99.90
71754;DHT22;59593;51.716;7.016;2022-11-23T17:06:13;9.20;99.90
71754;DHT22;59593;51.716;7.016;2022-11-23T17:08:42;9.10;99.90
71754;DHT22;59593;51.716;7.016;2022-11-23T17:11:14;9.10;99.90
71754;DHT22;59593;51.716;7.016;2022-11-23T17:13:41;9.00;99.90
71754;DHT22;59593;51.716;7.016;2022-11-23T17:16:13;9.00;99.90
71754;DHT22;59593;51.716;7.016;2022-11-23T17:18:39;8.90;99.90
71754;DHT22;59593;51.716;7.016;2022-11-23T17:21:05;8.90;99.90
71754;DHT22;59593;51.716;7.016;2022-11-23T17:23:31;8.90;99.90
71754;DHT22;59593;51.716;7.016;2022-11-23T17:25:56;8.80;99.90
71754;DHT22;59593;51.716;7.016;2022-11-23T17:28:22;8.80;99.90
71754;DHT22;59593;51.716;7.016;2022-11-23T17:30:49;8.80;99.90
71754;DHT22;59593;51.716;7.016;2022-11-23T17:33:14;8.80;99.90
71754;DHT22;59593;51.716;7.016;2022-11-23T17:35:40;8.70;99.90
71754;DHT22;59593;51.716;7.016;2022-11-23T17:38:14;8.60;99.90
71754;DHT22;59593;51.716;7.016;2022-11-23T17:40:40;8.60;99.90
71754;DHT22;59593;51.716;7.016;2022-11-23T17:43:06;8.50;99.90
71754;DHT22;59593;51.716;7.016;2022-11-23T17:45:32;8.50;99.90
71754;DHT22;59593;51.716;7.016;2022-11-23T17:47:57;8.50;99.90
71754;DHT22;59593;51.716;7.016;2022-11-23T17:50:23;8.50;99.90
71754;DHT22;59593;51.716;7.016;2022-11-23T17:52:52;8.60;99.90
71754;DHT22;59593;51.716;7.016;2022-11-23T17:55:18;8.60;99.90
71754;DHT22;59593;51.716;7.016;2022-11-23T17:57:44;8.60;99.90
71754;DHT22;59593;51.716;7.016;2022-11-23T18:00:18;8.60;99.90
71754;DHT22;59593;51.716;7.016;2022-11-23T18:02:44;8.70;99.90
71754;DHT22;59593;51.716;7.016;2022-11-23T18:05:10;8.60;99.90
71754;DHT22;59593;51.716;7.016;2022-11-23T18:07:36;8.60;99.90
71754;DHT22;59593;51.716;7.016;2022-11-23T18:10:03;8.60;99.90
71754;DHT22;59593;51.716;7.016;2022-11-23T18:12:29;8.60;99.90
71754;DHT22;59593;51.716;7.016;2022-11-23T18:14:54;8.70;99.90
71754;DHT22;59593;51.716;7.016;2022-11-23T18:17:20;8.60;99.90
71754;DHT22;59593;51.716;7.016;2022-11-23T18:19:47;8.60;99.90
71754;DHT22;59593;51.716;7.016;2022-11-23T18:22:13;8.70;99.90
71754;DHT22;59593;51.716;7.016;2022-11-23T18:24:38;8.50;99.90
71754;DHT22;59593;51.716;7.016;2022-11-23T18:27:04;8.60;99.90
71754;DHT22;59593;51.716;7.016;2022-11-23T18:29:30;8.60;99.90
71754;DHT22;59593;51.716;7.016;2022-11-23T18:31:56;8.60;99.90